Time;durP1;ratioP1;P1;durP2;ratioP2;P2;SDS_P1;SDS_P2;PMS_P1;PMS_P2;Temp;Humidity;BMP_temperature;BMP_pressure;BME280_temperature;BME280_humidity;BME280_pressure;Samples;Min_cycle;Max_cycle;Signal;HPM_P1;HPM_P2
2022/06/17 00:00:11;;;;;;;5.07;4.53;;;;;;;25.28;78.45;99781.88;5102322;28;20107;-73
2022/06/17 00:02:37;;;;;;;4.10;3.80;;;;;;;25.31;78.33;99780.63;5099514;28;20108;-75
2022/06/17 00:05:03;;;;;;;7.10;4.40;;;;;;;25.34;77.94;99783.66;5106606;28;20069;-74
2022/06/17 00:07:29;;;;;;;5.95;4.38;;;;;;;25.38;77.73;99792.16;5102778;28;20439;-74
2022/06/17 00:09:54;;;;;;;5.93;4.53;;;;;;;25.43;77.93;99787.69;5105404;28;20173;-73
2022/06/17 00:12:20;;;;;;;6.43;4.38;;;;;;;25.46;77.56;99795.31;5103751;28;20035;-73
2022/06/17 00:17:30;;;;;;;5.28;4.78;;;;;;;25.45;77.52;99796.34;5097905;28;20039;-75
2022/06/17 00:19:56;;;;;;;4.50;4.10;;;;;;;25.45;77.34;99796.34;5105054;28;20027;-74
2022/06/17 00:22:22;;;;;;;6.53;4.43;;;;;;;25.37;77.86;99794.03;5102586;28;20054;-73
2022/06/17 00:24:51;;;;;;;7.55;4.75;;;;;;;25.35;78.59;99796.13;5102987;28;20491;-73
2022/06/17 00:27:16;;;;;;;8.23;5.13;;;;;;;25.36;78.78;99796.94;5103362;28;20067;-74
2022/06/17 00:29:42;;;;;;;4.68;4.15;;;;;;;25.22;80.38;99796.31;5100431;28;20075;-74
2022/06/17 00:32:08;;;;;;;5.15;4.28;;;;;;;25.19;80.40;99796.81;5102576;28;20027;-74
2022/06/17 00:34:34;;;;;;;5.07;4.53;;;;;;;25.06;81.39;99791.59;5099397;28;20441;-74
2022/06/17 00:37:01;;;;;;;5.47;4.97;;;;;;;24.99;82.06;99788.16;5101999;28;20039;-76
2022/06/17 00:39:30;;;;;;;5.68;4.47;;;;;;;24.66;83.73;99788.63;5100973;28;20583;-76
2022/06/17 00:42:03;;;;;;;7.28;4.68;;;;;;;24.64;83.87;99788.84;5105079;28;20027;-74
2022/06/17 00:44:38;;;;;;;8.63;5.93;;;;;;;24.63;84.09;99789.88;5101366;28;20474;-74
2022/06/17 00:47:17;;;;;;;8.35;5.15;;;;;;;24.62;84.24;99782.88;5098601;28;20028;-74
2022/06/17 00:49:49;;;;;;;6.20;4.82;;;;;;;24.58;84.68;99789.75;5101362;28;20119;-75
2022/06/17 00:52:39;;;;;;;6.18;4.90;;;;;;;24.41;85.91;99788.72;5104232;28;20099;-73
2022/06/17 00:55:24;;;;;;;8.80;4.68;;;;;;;24.33;86.80;99787.16;5097830;28;20187;-74
2022/06/17 00:57:50;;;;;;;8.45;5.90;;;;;;;24.25;87.28;99778.56;5085392;28;20037;-74
2022/06/17 01:00:20;;;;;;;6.60;4.80;;;;;;;24.11;88.91;99787.81;5068580;28;20031;-75
2022/06/17 01:03:00;;;;;;;6.88;5.05;;;;;;;23.97;90.08;99797.94;5104817;28;20417;-74
2022/06/17 01:05:34;;;;;;;6.27;5.50;;;;;;;23.95;90.17;99803.56;5105311;28;20322;-74
2022/06/17 01:08:12;;;;;;;6.22;5.15;;;;;;;23.96;90.51;99807.06;5084164;28;20289;-75
2022/06/17 01:10:48;;;;;;;8.55;5.40;;;;;;;23.74;91.47;99803.16;5099277;28;20043;-72
2022/06/17 01:13:14;;;;;;;7.53;5.65;;;;;;;23.75;91.87;99794.81;5103833;28;20043;-74
2022/06/17 01:15:42;;;;;;;5.30;4.90;;;;;;;23.70;92.75;99796.53;5102614;28;20028;-76
2022/06/17 01:18:11;;;;;;;6.47;5.55;;;;;;;23.69;93.30;99795.72;5105287;28;20378;-74
2022/06/17 01:20:42;;;;;;;7.28;5.75;;;;;;;23.88;92.21;99797.41;5083834;28;20054;-74
2022/06/17 01:23:12;;;;;;;5.40;4.97;;;;;;;23.95;91.98;99792.75;5105465;28;20421;-75
2022/06/17 01:25:42;;;;;;;8.27;5.07;;;;;;;24.03;91.98;99794.34;5083437;28;20039;-76
2022/06/17 01:28:17;;;;;;;5.90;5.40;;;;;;;23.62;94.30;99785.00;5086719;28;20128;-75
2022/06/17 01:30:47;;;;;;;8.60;5.80;;;;;;;23.46;96.02;99790.94;5083366;28;20028;-73
2022/06/17 01:33:14;;;;;;;;;;;;;;;23.53;95.78;99788.19;5085462;28;20036;-73
2022/06/17 01:35:57;;;;;;;7.05;5.68;;;;;;;23.58;94.83;99788.34;5100668;28;19925;-75
2022/06/17 01:38:25;;;;;;;8.55;5.43;;;;;;;23.48;95.49;99793.44;5101610;28;20356;-75
2022/06/17 01:40:53;;;;;;;5.93;5.30;;;;;;;23.49;95.83;99792.41;5084173;28;20024;-74
2022/06/17 01:43:23;;;;;;;6.10;5.50;;;;;;;23.44;95.72;99798.41;5083175;28;20035;-74
2022/06/17 01:45:58;;;;;;;8.27;6.07;;;;;;;23.43;96.57;99795.94;5103101;28;20433;-75
2022/06/17 01:48:27;;;;;;;12.90;6.13;;;;;;;23.44;97.24;99797.59;5101616;28;20093;-75
2022/06/17 01:50:57;;;;;;;7.47;6.32;;;;;;;23.46;98.71;99790.09;5085158;28;20024;-76
2022/06/17 01:53:29;;;;;;;6.93;6.03;;;;;;;23.40;99.24;99794.50;5101635;28;20039;-73
2022/06/17 01:56:01;;;;;;;11.20;5.85;;;;;;;23.50;98.75;99794.84;5085061;28;20122;-76
2022/06/17 01:58:34;;;;;;;7.32;6.32;;;;;;;23.59;98.99;99796.22;5082134;28;20361;-74
2022/06/17 02:01:02;;;;;;;10.75;6.32;;;;;;;23.57;98.84;99792.09;5103833;28;20119;-74
2022/06/17 02:03:36;;;;;;;7.20;6.60;;;;;;;23.58;99.14;99796.44;5081285;28;20073;-75
2022/06/17 02:06:15;;;;;;;8.75;6.15;;;;;;;23.28;100.00;99801.63;5096146;28;20127;-74
2022/06/17 02:08:41;;;;;;;7.45;6.32;;;;;;;23.34;100.00;99808.00;5080245;28;20032;-74
2022/06/17 02:11:08;;;;;;;6.85;6.13;;;;;;;23.42;99.67;99805.06;5067831;28;20024;-74
2022/06/17 02:13:36;;;;;;;6.95;6.35;;;;;;;23.23;100.00;99796.91;5080969;28;20028;-76
2022/06/17 02:16:12;;;;;;;6.57;5.78;;;;;;;23.38;99.43;99803.84;5083229;28;20066;-75
2022/06/17 02:19:03;;;;;;;6.38;5.78;;;;;;;23.38;98.21;99817.31;5075539;28;20074;-75
2022/06/17 02:21:44;;;;;;;7.85;5.95;;;;;;;23.38;97.69;99811.94;5084130;28;20467;-74
2022/06/17 02:24:11;;;;;;;9.68;5.78;;;;;;;23.37;97.43;99803.03;5098018;28;20055;-74
2022/06/17 02:26:39;;;;;;;6.43;5.93;;;;;;;23.07;98.82;99813.59;5102044;28;20035;-73
2022/06/17 02:29:09;;;;;;;6.22;5.63;;;;;;;22.91;99.54;99810.59;5080691;28;20039;-73
2022/06/17 02:31:37;;;;;;;8.52;6.13;;;;;;;22.81;100.00;99819.13;5083926;28;20028;-73
2022/06/17 02:34:08;;;;;;;6.47;5.45;;;;;;;22.82;100.00;99818.91;5095453;28;20032;-74
2022/06/17 02:36:42;;;;;;;9.38;6.32;;;;;;;22.88;100.00;99822.59;5077611;28;20046;-74
2022/06/17 02:39:11;;;;;;;7.25;5.70;;;;;;;22.93;100.00;99817.41;5101029;28;20379;-73
2022/06/17 02:41:38;;;;;;;6.70;5.95;;;;;;;22.98;100.00;99825.66;5099580;28;20042;-73
2022/06/17 02:44:11;;;;;;;6.55;5.95;;;;;;;23.03;100.00;99823.13;5103133;28;20473;-73
2022/06/17 02:46:41;;;;;;;6.68;6.07;;;;;;;22.87;100.00;99829.03;5078340;28;20051;-73
2022/06/17 02:49:14;;;;;;;6.60;6.00;;;;;;;22.96;100.00;99821.53;5103081;28;20056;-73
2022/06/17 02:51:43;;;;;;;8.15;6.65;;;;;;;22.81;100.00;99821.81;5082498;28;20055;-74
2022/06/17 02:54:15;;;;;;;8.05;6.63;;;;;;;22.74;100.00;99819.16;5085194;28;20059;-75
2022/06/17 02:56:47;;;;;;;8.80;6.18;;;;;;;22.70;100.00;99823.28;5082214;28;20052;-74
2022/06/17 02:59:35;;;;;;;7.28;6.10;;;;;;;22.74;100.00;99834.47;5102379;28;20424;-74
2022/06/17 03:02:09;;;;;;;7.18;6.57;;;;;;;22.82;100.00;99832.38;4721973;28;9999915;-75
2022/06/17 03:04:41;;;;;;;9.10;6.88;;;;;;;22.86;100.00;99827.38;5078420;28;20435;-74
2022/06/17 03:07:20;;;;;;;9.85;6.82;;;;;;;22.88;100.00;99830.69;5083843;28;20083;-75
2022/06/17 03:09:50;;;;;;;9.50;6.93;;;;;;;22.63;100.00;99824.34;5086821;28;20089;-76
2022/06/17 03:12:29;;;;;;;7.82;6.68;;;;;;;22.69;100.00;99837.78;5081323;28;20138;-76
2022/06/17 03:15:25;;;;;;;7.78;6.93;;;;;;;22.82;100.00;99843.13;5101551;28;20070;-73
2022/06/17 03:17:50;;;;;;;7.90;7.20;;;;;;;22.86;100.00;99848.91;5081405;28;20421;-74
2022/06/17 03:20:20;;;;;;;6.85;6.35;;;;;;;22.75;100.00;99846.88;5082125;28;20031;-76
2022/06/17 03:22:51;;;;;;;9.38;6.35;;;;;;;22.76;100.00;99852.06;5082575;28;20024;-75
2022/06/17 03:25:35;;;;;;;8.55;7.18;;;;;;;22.73;100.00;99846.31;5082106;28;20028;-75
2022/06/17 03:28:09;;;;;;;8.45;6.45;;;;;;;22.66;100.00;99850.84;5076727;28;20032;-75
2022/06/17 03:30:41;;;;;;;8.05;6.85;;;;;;;22.36;100.00;99848.69;5077070;28;20036;-73
2022/06/17 03:33:17;;;;;;;8.93;6.80;;;;;;;22.32;100.00;99860.06;5101644;28;20052;-72
2022/06/17 03:35:47;;;;;;;10.32;6.80;;;;;;;22.37;100.00;99853.03;5081801;28;20036;-74
2022/06/17 03:38:28;;;;;;;10.43;6.47;;;;;;;22.41;100.00;99862.31;5082735;28;20123;-74
2022/06/17 03:41:01;;;;;;;6.95;6.35;;;;;;;22.24;100.00;99863.81;5083176;28;20036;-75
2022/06/17 03:43:33;;;;;;;10.50;6.57;;;;;;;22.18;100.00;99866.50;5080258;28;20028;-74
2022/06/17 03:46:06;;;;;;;7.68;7.07;;;;;;;22.09;100.00;99873.97;5075851;28;20036;-74
2022/06/17 03:49:04;;;;;;;8.50;6.93;;;;;;;22.10;100.00;99870.25;5094325;28;20497;-74
2022/06/17 03:51:31;;;;;;;11.18;6.45;;;;;;;22.26;100.00;99875.19;5097826;28;20429;-74
2022/06/17 03:53:59;;;;;;;10.38;7.25;;;;;;;22.39;100.00;99885.88;5082929;28;20059;-74
2022/06/17 03:56:35;;;;;;;8.27;6.82;;;;;;;22.45;100.00;99887.72;5079865;28;20396;-74
2022/06/17 03:59:11;;;;;;;12.23;7.13;;;;;;;22.38;100.00;99889.59;5078660;28;20371;-74
2022/06/17 04:01:44;;;;;;;7.40;6.70;;;;;;;22.42;100.00;99890.03;5081821;28;20406;-74
2022/06/17 04:04:23;;;;;;;9.48;7.15;;;;;;;22.40;100.00;99892.91;5070350;28;20364;-74
2022/06/17 04:06:53;;;;;;;6.97;6.38;;;;;;;22.28;100.00;99899.97;5085958;28;20048;-74
2022/06/17 04:09:27;;;;;;;7.25;6.63;;;;;;;22.28;100.00;99909.91;5084653;28;20367;-75
2022/06/17 04:11:59;;;;;;;8.13;7.00;;;;;;;22.23;100.00;99912.41;5104788;28;20032;-74
2022/06/17 04:14:44;;;;;;;8.40;6.60;;;;;;;22.20;100.00;99908.28;5084328;28;20047;-76
2022/06/17 04:17:15;;;;;;;7.45;6.57;;;;;;;22.14;100.00;99917.19;5082337;28;20055;-75
2022/06/17 04:19:53;;;;;;;12.93;7.90;;;;;;;22.19;100.00;99913.88;5085227;28;20024;-74
2022/06/17 04:22:25;;;;;;;11.60;6.70;;;;;;;22.12;100.00;99921.94;5065502;28;20079;-74
2022/06/17 04:25:38;;;;;;;8.38;7.18;;;;;;;22.15;100.00;99926.06;5087408;28;20048;-75
2022/06/17 04:28:08;;;;;;;7.80;7.03;;;;;;;22.21;100.00;99936.78;5098129;28;20415;-75
2022/06/17 04:30:42;;;;;;;11.52;6.85;;;;;;;22.27;100.00;99925.22;5079857;28;20369;-73
2022/06/17 04:33:21;;;;;;;7.32;6.55;;;;;;;22.34;100.00;99920.66;5085870;28;20028;-75
2022/06/17 04:35:51;;;;;;;9.38;6.68;;;;;;;22.37;100.00;99925.63;5102642;28;20134;-75
2022/06/17 04:38:17;;;;;;;8.52;7.35;;;;;;;22.39;100.00;99926.22;5102822;28;20028;-75
2022/06/17 04:41:11;;;;;;;7.72;6.95;;;;;;;22.39;100.00;99923.53;5098197;28;20028;-75
2022/06/17 04:44:06;;;;;;;8.45;7.22;;;;;;;22.49;100.00;99935.72;5097413;28;20482;-74
2022/06/17 04:46:39;;;;;;;10.75;7.70;;;;;;;22.55;100.00;99941.09;5078817;28;20040;-74
2022/06/17 04:49:17;;;;;;;7.38;6.63;;;;;;;22.62;100.00;99941.09;5080690;28;20046;-74
2022/06/17 04:51:44;;;;;;;7.15;6.45;;;;;;;22.64;100.00;99936.28;5103282;28;20028;-75
2022/06/17 04:54:12;;;;;;;7.53;6.82;;;;;;;22.72;100.00;99934.25;5084811;28;20164;-74
2022/06/17 04:57:01;;;;;;;11.18;6.63;;;;;;;22.82;100.00;99939.16;5102555;28;20035;-74
2022/06/17 04:59:47;;;;;;;10.32;7.25;;;;;;;22.89;100.00;99939.97;5084905;28;20020;-75
2022/06/17 05:02:23;;;;;;;12.48;7.20;;;;;;;22.87;100.00;99931.28;5105316;28;20054;-70
2022/06/17 05:05:18;;;;;;;10.48;7.05;;;;;;;22.95;100.00;99928.34;5087210;28;20063;-70
2022/06/17 05:07:48;;;;;;;7.65;6.93;;;;;;;22.97;100.00;99930.84;5083820;28;20032;-71
2022/06/17 05:10:22;;;;;;;10.00;7.25;;;;;;;23.07;100.00;99933.91;5083896;28;20031;-70
2022/06/17 05:13:02;;;;;;;12.35;7.60;;;;;;;23.13;100.00;99925.78;5081212;28;20036;-70
2022/06/17 05:15:29;;;;;;;11.00;8.07;;;;;;;23.17;100.00;99931.56;5101402;28;20032;-70
2022/06/17 05:17:56;;;;;;;7.95;7.25;;;;;;;23.15;100.00;99928.28;5080826;28;20500;-71
2022/06/17 05:20:24;;;;;;;9.00;7.75;;;;;;;23.23;100.00;99926.13;5102031;28;20032;-72
2022/06/17 05:22:56;;;;;;;9.40;8.13;;;;;;;23.32;100.00;99929.41;5083728;28;20458;-71
2022/06/17 05:25:28;;;;;;;10.65;7.75;;;;;;;23.35;100.00;99933.53;5082823;28;20131;-70
2022/06/17 05:27:54;;;;;;;9.73;8.45;;;;;;;23.38;100.00;99938.50;5085146;28;20551;-71
2022/06/17 05:30:20;;;;;;;8.60;7.90;;;;;;;23.43;100.00;99941.38;5102161;28;20100;-72
2022/06/17 05:32:53;;;;;;;9.18;8.07;;;;;;;23.41;100.00;99943.44;5083775;28;20472;-73
2022/06/17 05:35:20;;;;;;;9.20;8.18;;;;;;;23.44;100.00;99938.47;5101689;28;20440;-70
2022/06/17 05:37:46;;;;;;;9.63;7.18;;;;;;;23.45;100.00;99941.94;5083210;28;20032;-71
2022/06/17 05:40:14;;;;;;;7.95;7.18;;;;;;;23.55;100.00;99939.66;5102660;28;20209;-72
2022/06/17 05:42:41;;;;;;;9.13;7.55;;;;;;;23.64;100.00;99941.88;5100031;28;20510;-73
2022/06/17 05:45:15;;;;;;;12.50;8.45;;;;;;;23.70;100.00;99942.03;5084703;28;20483;-72
2022/06/17 05:48:01;;;;;;;9.85;8.38;;;;;;;23.71;100.00;99944.50;5096035;28;20050;-72
2022/06/17 05:50:38;;;;;;;9.25;8.02;;;;;;;23.72;100.00;99946.19;5081247;28;20626;-71
2022/06/17 05:53:24;;;;;;;10.02;7.90;;;;;;;23.81;100.00;99949.41;5101681;28;20054;-79
2022/06/17 05:55:55;;;;;;;9.82;7.35;;;;;;;23.83;100.00;99953.53;5084497;28;20531;-81
2022/06/17 05:58:22;;;;;;;12.18;7.78;;;;;;;23.85;99.69;99951.47;5083626;28;20034;-79
2022/06/17 06:00:49;;;;;;;8.48;7.57;;;;;;;23.92;99.39;99960.31;5086169;28;20024;-82
2022/06/17 06:03:26;;;;;;;10.77;8.95;;;;;;;23.95;99.74;99962.56;5086191;28;20095;-81
2022/06/17 06:05:55;;;;;;;9.48;8.52;;;;;;;24.07;99.17;99970.78;5087695;28;20040;-82
2022/06/17 06:08:23;;;;;;;9.65;7.68;;;;;;;24.19;98.78;99958.25;5068405;28;20196;-81
2022/06/17 06:10:49;;;;;;;10.30;9.27;;;;;;;24.27;98.62;99965.25;5086501;28;20074;-81
2022/06/17 06:13:19;;;;;;;12.80;9.20;;;;;;;24.36;98.10;99975.53;5110332;28;20032;-81
2022/06/17 06:15:48;;;;;;;11.60;8.13;;;;;;;24.36;98.23;99974.69;5093964;28;20468;-83
2022/06/17 06:18:36;;;;;;;10.80;8.85;;;;;;;24.37;98.07;99977.19;5101894;28;20028;-81
2022/06/17 06:21:18;;;;;;;9.10;8.20;;;;;;;24.44;98.37;99971.72;5075290;28;20031;-81
2022/06/17 06:23:44;;;;;;;10.80;8.63;;;;;;;24.37;98.62;99984.44;5096559;28;20417;-81
2022/06/17 06:26:16;;;;;;;13.50;8.18;;;;;;;24.41;98.50;99986.47;5087851;28;20506;-81
2022/06/17 06:28:45;;;;;;;12.18;8.48;;;;;;;24.48;98.04;99981.00;5082545;28;20038;-82
2022/06/17 06:31:33;;;;;;;7.28;6.68;;;;;;;24.61;97.25;99978.19;5084112;28;20036;-81
2022/06/17 06:34:03;;;;;;;9.65;7.32;;;;;;;24.73;96.02;99979.09;5082110;28;20492;-81
2022/06/17 06:36:37;;;;;;;9.90;7.43;;;;;;;24.82;94.96;99979.59;5066271;28;20078;-81
2022/06/17 06:39:03;;;;;;;10.07;7.40;;;;;;;24.90;93.98;99978.53;5085411;28;20024;-81
2022/06/17 06:41:28;;;;;;;9.77;7.78;;;;;;;24.96;93.17;99981.16;5073256;28;20032;-81
2022/06/17 06:43:55;;;;;;;8.48;7.50;;;;;;;25.02;93.15;99985.66;5084816;28;20031;-81
2022/06/17 06:46:39;;;;;;;13.77;8.05;;;;;;;25.00;92.74;99986.91;5081952;28;20196;-81
2022/06/17 06:49:05;;;;;;;11.52;8.00;;;;;;;24.95;92.38;99986.75;5103330;28;20483;-81
2022/06/17 06:51:32;;;;;;;9.05;6.82;;;;;;;24.98;92.48;99989.00;5095899;28;20152;-82
2022/06/17 06:53:58;;;;;;;10.13;7.75;;;;;;;25.07;92.63;99987.66;5084637;28;20039;-81
2022/06/17 06:56:24;;;;;;;8.90;7.38;;;;;;;25.16;92.88;99988.97;5099833;28;20031;-80
2022/06/17 06:58:50;;;;;;;8.32;7.53;;;;;;;25.23;93.01;99997.84;5083675;28;20080;-80
2022/06/17 07:01:16;;;;;;;15.00;8.23;;;;;;;25.25;93.19;99995.75;5083198;28;20023;-80
2022/06/17 07:03:42;;;;;;;10.75;7.90;;;;;;;25.26;92.80;100000.09;5099989;28;20040;-74
2022/06/17 07:06:09;;;;;;;10.93;8.23;;;;;;;25.24;92.63;100008.41;5079734;28;20071;-72
2022/06/17 07:08:36;;;;;;;12.10;7.85;;;;;;;25.27;92.30;100007.16;5075821;28;20085;-74
2022/06/17 07:11:05;;;;;;;12.07;8.82;;;;;;;25.31;93.25;100011.03;5072064;28;20032;-74
2022/06/17 07:13:31;;;;;;;14.70;7.70;;;;;;;25.41;92.85;100000.50;5071143;28;20378;-73
2022/06/17 07:15:59;;;;;;;8.75;6.95;;;;;;;25.53;92.35;100004.09;5079542;28;20039;-76
2022/06/17 07:18:31;;;;;;;11.38;7.80;;;;;;;25.67;91.44;100004.75;5077096;28;20149;-73
2022/06/17 07:21:02;;;;;;;13.00;7.25;;;;;;;25.81;89.64;100010.78;5080584;28;20035;-73
2022/06/17 07:23:36;;;;;;;8.88;7.38;;;;;;;25.93;89.05;99998.94;5078300;28;20031;-70
2022/06/17 07:26:06;;;;;;;10.32;7.20;;;;;;;26.01;88.72;99998.63;5074152;28;20046;-74
2022/06/17 07:28:32;;;;;;;9.95;6.60;;;;;;;26.12;87.99;100002.41;5074148;28;20379;-73
2022/06/17 07:30:58;;;;;;;9.82;6.85;;;;;;;26.18;86.87;100012.28;5078040;28;20032;-74
2022/06/17 07:33:27;;;;;;;7.03;6.03;;;;;;;26.21;86.10;100005.59;5081297;28;20089;-73
2022/06/17 07:35:55;;;;;;;9.27;6.65;;;;;;;26.25;85.27;100006.81;5080905;28;20463;-74
2022/06/17 07:41:15;;;;;;;9.25;5.65;;;;;;;26.38;85.69;100010.13;5078809;28;20060;-73
2022/06/17 07:43:41;;;;;;;9.90;5.55;;;;;;;26.47;84.27;100015.97;5081894;28;20040;-73
2022/06/17 07:46:07;;;;;;;8.32;5.75;;;;;;;26.51;82.09;100016.34;5081102;28;20040;-73
2022/06/17 07:48:36;;;;;;;7.47;5.57;;;;;;;26.49;81.30;100020.13;5081462;28;20025;-72
2022/06/17 07:51:01;;;;;;;13.32;6.22;;;;;;;26.49;80.44;100014.69;5081941;28;20032;-72
2022/06/17 07:53:30;;;;;;;7.22;5.20;;;;;;;26.54;80.52;100016.69;5080374;28;20035;-72
2022/06/17 07:55:58;;;;;;;7.05;5.72;;;;;;;26.62;80.48;100018.22;5082418;28;20036;-74
2022/06/17 07:58:24;;;;;;;13.00;5.95;;;;;;;26.74;80.97;100019.06;5080537;28;20071;-71
2022/06/17 08:00:50;;;;;;;9.82;5.75;;;;;;;26.85;79.84;100015.50;5081636;28;20072;-73
2022/06/17 08:03:18;;;;;;;8.77;5.50;;;;;;;26.92;78.85;100018.91;5079570;28;20036;-72
2022/06/17 08:05:48;;;;;;;5.97;5.32;;;;;;;26.97;78.09;100010.94;5086718;28;20070;-73
2022/06/17 08:08:21;;;;;;;7.68;5.97;;;;;;;27.01;75.58;100017.50;5101173;28;20036;-72
2022/06/17 08:10:53;;;;;;;11.52;5.70;;;;;;;27.01;74.12;100014.78;5100592;28;20421;-71
2022/06/17 08:13:19;;;;;;;6.00;4.68;;;;;;;27.01;73.67;100009.38;5097521;28;20117;-69
2022/06/17 08:15:46;;;;;;;7.90;5.00;;;;;;;27.03;73.98;100009.97;5099747;28;20051;-72
2022/06/17 08:18:11;;;;;;;6.40;4.57;;;;;;;27.06;72.14;100009.47;5082263;28;20031;-74
2022/06/17 08:20:37;;;;;;;5.25;4.68;;;;;;;27.14;72.91;100016.41;5098492;28;20039;-69
2022/06/17 08:23:05;;;;;;;8.13;4.97;;;;;;;27.23;72.73;100010.38;5083042;28;20243;-72
2022/06/17 08:25:33;;;;;;;7.93;4.80;;;;;;;27.35;72.61;100017.63;5097527;28;20080;-72
2022/06/17 08:28:02;;;;;;;6.47;4.85;;;;;;;27.47;71.54;100007.59;5100895;28;20027;-71
2022/06/17 08:30:32;;;;;;;5.55;4.47;;;;;;;27.59;68.08;100011.09;5098918;28;20561;-71
2022/06/17 08:32:58;;;;;;;7.70;5.32;;;;;;;27.64;68.34;100016.63;5099134;28;20035;-70
2022/06/17 08:35:33;;;;;;;6.57;6.05;;;;;;;27.67;67.89;100010.72;5080791;28;20040;-71
2022/06/17 08:38:08;;;;;;;5.47;4.85;;;;;;;27.70;68.00;100015.63;5101039;28;20035;-73
2022/06/17 08:40:52;;;;;;;6.07;4.65;;;;;;;27.76;68.26;100016.56;5098153;28;20025;-69
2022/06/17 08:44:06;;;;;;;5.95;5.10;;;;;;;27.79;67.61;100014.19;5081591;28;20384;-69
2022/06/17 08:46:54;;;;;;;5.30;4.90;;;;;;;27.88;68.06;100018.16;5008132;28;20046;-70
2022/06/17 08:49:37;;;;;;;9.18;5.57;;;;;;;27.92;68.07;100024.72;5099336;28;20356;-71
2022/06/17 08:52:06;;;;;;;7.13;5.20;;;;;;;27.97;68.20;100027.53;5097717;28;20359;-70
2022/06/17 08:54:52;;;;;;;5.72;5.05;;;;;;;28.00;68.48;100015.38;5098189;28;20024;-71
2022/06/17 08:57:36;;;;;;;7.75;5.55;;;;;;;28.05;68.59;100018.97;5098584;28;20165;-69
2022/06/17 09:00:18;;;;;;;9.38;5.15;;;;;;;28.14;69.17;100026.75;5097087;28;20432;-70
2022/06/17 09:03:12;;;;;;;9.40;6.05;;;;;;;28.23;68.24;100025.28;5098070;28;20434;-69
2022/06/17 09:05:43;;;;;;;9.70;5.82;;;;;;;28.23;68.98;100020.66;5096130;28;20403;-70
2022/06/17 09:08:31;;;;;;;7.80;5.50;;;;;;;28.26;69.44;100013.94;5096154;28;20379;-70
2022/06/17 09:11:18;;;;;;;8.25;6.10;;;;;;;28.26;69.06;100013.94;5101763;28;20072;-71
2022/06/17 09:14:01;;;;;;;10.02;5.95;;;;;;;28.25;69.35;100020.44;5094823;28;20043;-69
2022/06/17 09:16:51;;;;;;;7.03;6.22;;;;;;;28.26;70.43;100014.75;5100704;28;20123;-73
2022/06/17 09:19:25;;;;;;;10.63;7.50;;;;;;;28.33;69.87;100014.59;5098616;28;20061;-74
2022/06/17 09:21:57;;;;;;;7.75;7.03;;;;;;;28.39;69.78;100010.91;5097942;28;20070;-75
2022/06/17 09:24:28;;;;;;;14.38;8.23;;;;;;;28.44;70.44;100017.22;5102057;28;20046;-75
2022/06/17 09:27:04;;;;;;;13.60;8.73;;;;;;;28.51;71.02;100022.47;5102429;28;20067;-75
2022/06/17 09:29:38;;;;;;;11.00;8.27;;;;;;;28.58;71.71;100017.69;5100999;28;20452;-73
2022/06/17 09:32:15;;;;;;;11.95;7.85;;;;;;;28.70;70.75;100021.13;5098044;28;20396;-76
2022/06/17 09:34:45;;;;;;;11.80;6.65;;;;;;;28.78;70.18;100023.44;5084671;28;20097;-74
2022/06/17 09:37:31;;;;;;;9.40;5.75;;;;;;;28.89;69.60;100013.53;5101335;28;20036;-74
2022/06/17 09:40:05;;;;;;;11.35;7.40;;;;;;;29.00;70.11;100017.22;5100991;28;20081;-74
2022/06/17 09:42:40;;;;;;;10.85;8.65;;;;;;;29.07;69.46;100010.53;5103421;28;20399;-74
2022/06/17 09:45:25;;;;;;;8.68;7.90;;;;;;;29.13;69.76;100009.50;5096901;28;20063;-74
2022/06/17 09:48:16;;;;;;;22.13;8.43;;;;;;;29.23;70.24;100009.63;5101580;28;20395;-74
2022/06/17 09:51:13;;;;;;;13.00;8.82;;;;;;;29.28;68.71;100006.13;5060181;28;20044;-75
2022/06/17 09:54:02;;;;;;;8.27;7.45;;;;;;;29.30;68.82;99998.56;5056017;28;20385;-74
2022/06/17 09:56:35;;;;;;;12.75;8.18;;;;;;;29.37;70.13;100010.09;5099399;28;20028;-74
2022/06/17 09:59:20;;;;;;;14.23;9.02;;;;;;;29.46;71.69;100002.28;5103603;28;20027;-74
2022/06/17 10:01:47;;;;;;;17.13;8.85;;;;;;;29.51;71.57;100005.88;5099247;28;20080;-75
2022/06/17 10:04:15;;;;;;;15.32;10.07;;;;;;;29.56;72.36;100008.69;5101880;28;20416;-74
2022/06/17 10:06:55;;;;;;;15.43;10.40;;;;;;;29.52;71.57;100007.53;5100233;28;20044;-74
2022/06/17 10:09:30;;;;;;;11.15;9.02;;;;;;;29.47;71.91;100003.94;5101521;28;20127;-73
2022/06/17 10:12:10;;;;;;;13.77;10.40;;;;;;;29.50;73.22;100008.88;5102760;28;20105;-74
2022/06/17 10:14:36;;;;;;;15.63;10.23;;;;;;;29.53;73.52;100009.19;5096501;28;20486;-74
2022/06/17 10:20:21;;;;;;;12.30;9.23;;;;;;;29.55;71.13;100006.22;5095942;28;20044;-73
2022/06/17 10:23:08;;;;;;;9.95;9.00;;;;;;;29.57;71.58;100010.31;5099493;28;20580;-75
2022/06/17 10:25:51;;;;;;;9.13;8.15;;;;;;;29.66;69.92;100014.22;5098325;28;20419;-73
2022/06/17 10:28:20;;;;;;;11.13;7.78;;;;;;;29.73;69.16;100010.47;5099671;28;20539;-75
2022/06/17 10:30:59;;;;;;;11.75;8.15;;;;;;;29.82;68.15;100012.47;5102944;28;20460;-73
2022/06/17 10:33:29;;;;;;;13.77;8.07;;;;;;;29.85;67.08;100008.41;5103287;28;20157;-74
2022/06/17 10:35:55;;;;;;;12.98;9.15;;;;;;;29.83;66.70;100005.13;5100929;28;20440;-74
2022/06/17 10:38:26;;;;;;;9.90;7.97;;;;;;;29.81;67.29;100015.47;5084117;28;20056;-75
2022/06/17 10:40:52;;;;;;;8.95;7.50;;;;;;;29.87;67.02;100009.78;5101626;28;20058;-75
2022/06/17 10:43:22;;;;;;;13.05;7.43;;;;;;;29.96;66.02;100007.47;5102178;28;20107;-74
2022/06/17 10:45:52;;;;;;;9.80;6.68;;;;;;;30.10;64.60;100004.03;5102278;28;20031;-75
2022/06/17 10:48:32;;;;;;;10.88;7.50;;;;;;;30.17;63.92;100011.16;5083986;28;20515;-75
2022/06/17 10:51:00;;;;;;;10.25;6.53;;;;;;;30.17;61.90;99998.38;5100330;28;20032;-74
2022/06/17 10:53:37;;;;;;;8.30;6.03;;;;;;;30.24;58.70;100004.44;5101962;28;20059;-74
2022/06/17 10:56:12;;;;;;;7.50;5.85;;;;;;;30.29;58.29;99995.47;5096327;28;20039;-74
2022/06/17 10:58:58;;;;;;;6.75;5.95;;;;;;;30.43;57.90;99997.50;5097499;28;20074;-74
2022/06/17 11:01:25;;;;;;;7.47;6.75;;;;;;;30.45;58.47;99999.97;5101750;28;20028;-75
2022/06/17 11:04:09;;;;;;;7.45;6.40;;;;;;;30.50;58.65;99998.13;5102437;28;20028;-75
2022/06/17 11:06:47;;;;;;;6.65;6.05;;;;;;;30.59;56.55;99994.88;5095537;28;20044;-73
2022/06/17 11:09:21;;;;;;;7.68;5.95;;;;;;;30.62;56.53;99989.75;5097976;28;20372;-73
2022/06/17 11:12:03;;;;;;;10.85;6.40;;;;;;;30.69;56.82;99990.31;5102165;28;20028;-75
2022/06/17 11:14:54;;;;;;;7.45;6.70;;;;;;;30.79;58.31;99986.84;5103564;28;20028;-74
2022/06/17 11:17:28;;;;;;;10.63;6.38;;;;;;;30.80;57.59;99988.50;5100213;28;20396;-75
2022/06/17 11:19:57;;;;;;;11.30;6.45;;;;;;;30.84;56.85;99986.88;5101316;28;20427;-75
2022/06/17 11:22:34;;;;;;;6.73;6.13;;;;;;;30.93;56.38;99974.34;5101960;28;20375;-73
2022/06/17 11:25:05;;;;;;;6.68;5.68;;;;;;;31.12;55.03;99972.00;5101159;28;20608;-74
2022/06/17 11:27:42;;;;;;;10.10;5.40;;;;;;;31.22;53.75;99978.31;5099998;28;20051;-75
2022/06/17 11:30:31;;;;;;;7.47;6.70;;;;;;;31.25;51.70;99975.06;5097029;28;20077;-76
2022/06/17 11:32:59;;;;;;;9.63;5.82;;;;;;;31.24;50.73;99978.88;5100546;28;20040;-75
2022/06/17 11:35:24;;;;;;;12.57;5.50;;;;;;;31.26;49.95;99979.44;5101659;28;20038;-75
2022/06/17 11:37:51;;;;;;;6.63;4.78;;;;;;;31.42;47.30;99982.19;5099898;28;20252;-74
2022/06/17 11:40:20;;;;;;;6.03;5.35;;;;;;;31.50;46.50;99976.22;5099692;28;20082;-74
2022/06/17 11:42:55;;;;;;;5.57;5.07;;;;;;;31.50;44.86;99977.06;5100272;28;20032;-74
2022/06/17 11:45:42;;;;;;;4.47;4.05;;;;;;;31.51;42.98;99969.69;5100199;28;20032;-75
2022/06/17 11:48:18;;;;;;;5.28;4.50;;;;;;;31.53;42.74;99973.75;5095211;28;20040;-73
2022/06/17 11:51:04;;;;;;;4.30;3.22;;;;;;;31.53;38.60;99967.50;5100304;28;20038;-74
2022/06/17 11:53:31;;;;;;;5.10;3.53;;;;;;;31.58;37.12;99951.13;5081012;28;20223;-75
2022/06/17 11:55:57;;;;;;;7.45;4.30;;;;;;;31.59;39.52;99955.53;5100567;28;20042;-76
2022/06/17 11:58:22;;;;;;;4.95;3.97;;;;;;;31.61;40.27;99950.63;5098901;28;20032;-75
2022/06/17 12:00:51;;;;;;;8.75;4.60;;;;;;;31.70;41.01;99949.00;5099369;28;20111;-74
2022/06/17 12:03:37;;;;;;;5.60;3.65;;;;;;;31.85;39.87;99949.00;5099872;28;20084;-74